createdAt,value
2019-04-01T04:37:23.132Z,1563
2019-04-01T04:38:22.242Z,5738
2019-04-01T04:43:21.647Z,5738
2019-04-01T04:43:26.735Z,9508
2019-04-01T04:48:21.149Z,12650
2019-04-01T04:53:20.683Z,15266
2019-04-01T04:58:21.099Z,15266
2019-04-01T04:58:25.169Z,17456
2019-04-01T05:03:23.746Z,19288
2019-04-01T05:08:24.111Z,20821
2019-04-01T05:13:23.704Z,22105
2019-04-01T05:18:23.215Z,23183
2019-04-01T05:23:22.675Z,24080
2019-04-01T05:28:22.075Z,24843
2019-04-01T05:33:21.549Z,25475
2019-04-01T05:38:20.867Z,26029
2019-04-01T05:43:20.447Z,26514
2019-04-01T05:48:20.855Z,26937
2019-04-01T05:53:19.225Z,27315
2019-04-01T05:58:18.702Z,27669
2019-04-01T06:03:18.104Z,27995
2019-04-01T06:08:17.435Z,28274
2019-04-01T06:13:17.926Z,28526
2019-04-01T06:18:17.264Z,28754
2019-04-01T06:23:16.654Z,28972
2019-04-01T06:28:15.994Z,29172
2019-04-01T06:33:15.343Z,29397
2019-04-01T06:38:14.870Z,29614
2019-04-01T06:43:14.316Z,29887
2019-04-01T06:48:13.825Z,31687
2019-04-01T06:53:13.308Z,31731
2019-04-01T06:58:00.693Z,34816
2019-04-01T07:03:02.216Z,35315
2019-04-01T07:08:01.617Z,35700
2019-04-01T07:13:00.889Z,36049
2019-04-01T07:18:00.403Z,36375
2019-04-01T07:28:01.141Z,36923
2019-04-01T07:38:02.087Z,37333
2019-04-01T07:43:02.721Z,37524
2019-04-01T07:58:04.669Z,38034
2019-04-01T08:14:41.246Z,38200
2019-04-01T08:18:01.773Z,38223
2019-04-01T08:23:01.527Z,38230
2019-04-01T08:28:01.150Z,38213
2019-04-01T08:33:00.649Z,38227
2019-04-01T08:37:59.998Z,38224
2019-04-01T08:42:59.387Z,38236
2019-04-01T08:47:58.909Z,38216
2019-04-01T08:52:57.524Z,38205
2019-04-01T08:57:56.844Z,38193
2019-04-01T09:02:56.317Z,38174
2019-04-01T09:07:55.797Z,38138
2019-04-01T09:12:55.961Z,38119
2019-04-01T09:17:54.536Z,38081
2019-04-01T09:22:54.097Z,38016
2019-04-01T09:27:55.028Z,37948
2019-04-01T09:32:53.242Z,37890
2019-04-01T09:42:53.996Z,37709
2019-04-01T09:47:53.415Z,37609
2019-04-01T09:52:52.813Z,37499
2019-04-01T09:57:52.219Z,37356
2019-04-01T10:07:52.914Z,37050
2019-04-01T10:27:55.697Z,36695
2019-04-01T10:37:56.646Z,36553
2019-04-01T11:18:03.922Z,35919
2019-04-01T11:28:03.806Z,35723
2019-04-01T11:33:03.266Z,35633
2019-04-01T11:38:02.690Z,35480
2019-04-01T11:43:04.878Z,35379
2019-04-01T11:48:01.532Z,35267
2019-04-01T11:53:01.908Z,35109
2019-04-01T11:58:01.319Z,35027
2019-04-01T12:03:00.736Z,34890
2019-04-01T12:08:00.168Z,34782
2019-04-01T12:13:00.100Z,34648
2019-04-01T12:17:58.932Z,34580
2019-04-01T12:22:58.390Z,34367
2019-04-01T12:47:51.497Z,33793
2019-04-01T12:47:55.923Z,33700
2019-04-01T12:52:55.575Z,33575
2019-04-01T12:57:54.396Z,33444
2019-04-01T13:02:54.099Z,33395
2019-04-01T13:07:54.314Z,33303
2019-04-01T13:12:54.242Z,33028
2019-04-01T13:17:52.212Z,32970
2019-04-01T13:22:51.582Z,32873
2019-04-01T13:27:50.934Z,32706
2019-04-01T13:32:50.294Z,32547
2019-04-01T13:37:50.586Z,32460
2019-04-01T13:42:50.002Z,32370
2019-04-01T13:47:49.634Z,32298
2019-04-01T13:52:48.702Z,32220
2019-04-01T13:57:49.119Z,32104
2019-04-01T14:02:47.538Z,32039
2019-04-01T14:07:46.836Z,31841
2019-04-01T14:12:46.372Z,31785
2019-04-01T14:17:46.806Z,31851
2019-04-01T14:22:46.162Z,31697
2019-04-01T14:27:45.490Z,31637
2019-04-01T14:32:44.905Z,31543
2019-04-01T14:37:44.262Z,31478
2019-04-01T14:42:46.406Z,31373
2019-04-01T14:47:56.298Z,31275
2019-04-01T14:52:43.312Z,31145
2019-04-01T14:57:42.881Z,30926
2019-04-01T15:02:42.265Z,30725
2019-04-01T15:07:41.578Z,30613
2019-04-01T15:12:41.215Z,30478
2019-04-01T15:17:40.593Z,30345
2019-04-01T15:22:39.970Z,30198
2019-04-01T15:27:39.288Z,30033
2019-04-01T15:32:38.778Z,29890
2019-04-01T15:37:38.277Z,29806
2019-04-01T15:47:38.918Z,29611
2019-04-01T15:52:38.275Z,29421
2019-04-01T15:57:38.594Z,29248
2019-04-01T16:02:37.892Z,29064
2019-04-01T16:07:37.292Z,28842
2019-04-01T16:12:36.673Z,28591
2019-04-01T16:17:36.042Z,28213
2019-04-01T16:22:35.473Z,27879
2019-04-01T16:27:34.846Z,27485
2019-04-01T16:32:34.295Z,26992
2019-04-01T16:37:34.572Z,26471
2019-04-01T16:42:33.967Z,25973
2019-04-01T16:47:33.420Z,25567
2019-04-01T16:52:32.753Z,25089
2019-04-01T16:57:32.152Z,24410
2019-04-01T17:02:32.935Z,23666
2019-04-01T17:07:31.014Z,22681
2019-04-01T17:12:30.425Z,21694
2019-04-01T17:17:29.864Z,20623
2019-04-01T17:22:29.382Z,19449
2019-04-01T17:27:28.725Z,18226
2019-04-01T17:32:28.153Z,16828
2019-04-01T17:37:27.535Z,15092
2019-04-01T17:41:48.408Z,12952
2019-04-01T17:46:49.395Z,10200
